createdAt,value
2018-12-08T00:02:00.475Z,47.60
2018-12-08T00:04:29.694Z,49.33
2018-12-08T00:06:59.380Z,52.37
2018-12-08T00:09:28.712Z,49.83
2018-12-08T00:11:58.312Z,48.73
2018-12-08T00:14:27.602Z,52.03
2018-12-08T00:16:56.918Z,49.67
2018-12-08T00:19:26.137Z,55.73
2018-12-08T00:21:55.616Z,54.87
2018-12-08T00:24:25.042Z,53.67
2018-12-08T00:26:54.648Z,54.47
2018-12-08T00:29:23.894Z,56.90
2018-12-08T00:31:53.443Z,56.10
2018-12-08T00:34:22.695Z,52.63
2018-12-08T00:36:52.189Z,51.27
2018-12-08T00:39:21.380Z,53.70
2018-12-08T00:41:50.663Z,55.53
2018-12-08T00:44:20.007Z,55.53
2018-12-08T00:46:49.631Z,56.93
2018-12-08T00:49:19.028Z,58.00
2018-12-08T00:51:48.723Z,60.47
2018-12-08T00:54:18.053Z,58.37
2018-12-08T00:56:47.313Z,56.90
2018-12-08T00:59:16.593Z,60.03
2018-12-08T01:01:45.825Z,63.70
2018-12-08T01:04:15.068Z,59.23
2018-12-08T01:06:44.607Z,58.40
2018-12-08T01:09:13.843Z,56.17
2018-12-08T01:11:43.146Z,53.20
2018-12-08T01:14:12.387Z,56.80
2018-12-08T01:16:41.720Z,54.50
2018-12-08T01:19:11.039Z,58.03
2018-12-08T01:21:40.591Z,56.07
2018-12-08T01:24:09.942Z,51.17
2018-12-08T01:26:40.643Z,55.00
2018-12-08T01:29:09.891Z,50.30
2018-12-08T01:31:39.218Z,50.27
2018-12-08T01:36:41.158Z,45.90
2018-12-08T01:39:10.453Z,47.17
2018-12-08T01:41:40.081Z,42.43
2018-12-08T01:44:09.394Z,41.77
2018-12-08T01:46:38.886Z,44.70
2018-12-08T01:49:08.132Z,44.30
2018-12-08T01:51:37.730Z,44.30
2018-12-08T01:54:06.946Z,42.60
2018-12-08T01:56:36.536Z,41.73
2018-12-08T01:59:05.820Z,41.07
2018-12-08T02:01:35.473Z,41.70
2018-12-08T02:04:04.755Z,37.10
2018-12-08T02:06:34.077Z,37.87
2018-12-08T02:09:05.537Z,36.87
2018-12-08T02:11:37.037Z,37.93
2018-12-08T02:14:06.331Z,39.63
2018-12-08T02:16:35.614Z,36.73
2018-12-08T02:19:04.894Z,35.63
2018-12-08T02:21:34.144Z,33.60
2018-12-08T02:24:03.454Z,34.90
2018-12-08T02:26:32.838Z,33.87
2018-12-08T02:29:02.021Z,32.60
2018-12-08T02:31:31.345Z,30.30
2018-12-08T02:34:00.580Z,28.60
2018-12-08T02:36:29.824Z,27.90
2018-12-08T02:38:59.048Z,28.57
2018-12-08T02:41:28.656Z,29.27
2018-12-08T02:43:57.855Z,26.00
2018-12-08T02:46:27.590Z,28.07
2018-12-08T02:48:56.915Z,26.50
2018-12-08T02:51:26.151Z,27.60
2018-12-08T02:53:55.326Z,25.37
2018-12-08T02:56:24.890Z,28.50
2018-12-08T02:58:54.095Z,29.60
2018-12-08T03:01:23.343Z,27.97
2018-12-08T03:03:52.745Z,30.27
2018-12-08T03:06:22.208Z,26.50
2018-12-08T03:08:51.348Z,29.33
2018-12-08T03:11:20.542Z,28.77
2018-12-08T03:13:49.825Z,26.87
2018-12-08T03:16:19.520Z,27.37
2018-12-08T03:18:48.962Z,26.93
2018-12-08T03:21:18.459Z,29.13
2018-12-08T03:23:47.719Z,27.17
2018-12-08T03:26:17.207Z,26.27
2018-12-08T03:28:46.581Z,28.33
2018-12-08T03:31:16.027Z,30.83
2018-12-08T03:33:45.308Z,27.10
2018-12-08T03:36:15.942Z,30.00
2018-12-08T03:38:45.297Z,27.63
2018-12-08T03:41:14.841Z,20.87
2018-12-08T03:43:44.132Z,21.27
2018-12-08T03:46:13.318Z,19.77
2018-12-08T03:48:42.607Z,23.33
2018-12-08T03:51:11.870Z,22.20
2018-12-08T03:53:41.134Z,25.87
2018-12-08T03:56:10.766Z,24.67
2018-12-08T03:58:40.006Z,23.90
2018-12-08T04:01:09.454Z,22.10
2018-12-08T04:03:38.634Z,22.70
2018-12-08T04:06:07.823Z,21.53
2018-12-08T04:08:37.211Z,23.67
2018-12-08T04:11:06.876Z,21.27
2018-12-08T04:13:36.166Z,23.77
2018-12-08T04:16:05.698Z,21.17
2018-12-08T04:18:34.961Z,20.73
2018-12-08T04:21:04.446Z,22.27
2018-12-08T04:23:33.672Z,23.77
2018-12-08T04:26:03.186Z,22.13
2018-12-08T04:28:32.448Z,21.83
2018-12-08T04:31:02.004Z,21.10
2018-12-08T04:33:31.268Z,20.67
2018-12-08T04:36:00.642Z,23.80
2018-12-08T04:38:29.997Z,22.93
2018-12-08T04:40:59.456Z,25.20
2018-12-08T04:43:28.746Z,23.57
2018-12-08T04:45:58.310Z,22.90
2018-12-08T04:48:27.517Z,25.13
2018-12-08T04:50:56.850Z,23.10
2018-12-08T04:53:26.175Z,24.13
2018-12-08T04:55:55.662Z,23.93
2018-12-08T04:58:24.918Z,27.03
2018-12-08T05:00:54.491Z,26.77
2018-12-08T05:03:23.794Z,27.37
2018-12-08T05:05:53.130Z,28.37
2018-12-08T05:08:22.394Z,29.17
2018-12-08T05:10:52.022Z,27.30
2018-12-08T05:13:21.322Z,30.67
2018-12-08T05:15:50.896Z,28.60
2018-12-08T05:18:20.213Z,32.80
2018-12-08T05:20:49.519Z,32.27
2018-12-08T05:23:18.798Z,31.17
2018-12-08T05:25:48.379Z,30.37
2018-12-08T05:28:17.638Z,34.40
2018-12-08T05:30:47.317Z,34.40
2018-12-08T05:33:16.584Z,35.10
2018-12-08T05:35:45.941Z,32.67
2018-12-08T05:38:15.236Z,38.83
2018-12-08T05:40:44.510Z,36.03
2018-12-08T05:43:13.746Z,32.83
2018-12-08T05:45:43.300Z,34.80
2018-12-08T05:48:12.537Z,39.33
2018-12-08T05:50:41.799Z,31.63
2018-12-08T05:53:11.058Z,33.13
2018-12-08T05:55:40.624Z,32.57
2018-12-08T05:58:09.883Z,34.50
2018-12-08T06:00:39.540Z,32.53
2018-12-08T06:03:08.840Z,35.10
2018-12-08T06:05:38.399Z,33.37
2018-12-08T06:08:07.652Z,37.13
2018-12-08T06:10:37.240Z,31.23
2018-12-08T06:13:06.528Z,35.10
2018-12-08T06:15:35.808Z,33.00
2018-12-08T06:18:05.101Z,33.80
2018-12-08T06:20:34.424Z,32.97
2018-12-08T06:23:03.644Z,34.07
2018-12-08T06:25:35.784Z,39.70
2018-12-08T06:28:17.650Z,34.80
2018-12-08T06:30:47.165Z,33.67
2018-12-08T06:33:16.671Z,34.00
2018-12-08T06:35:46.402Z,37.50
2018-12-08T06:38:15.691Z,31.73
2018-12-08T06:40:45.393Z,32.27
2018-12-08T06:43:14.648Z,39.80
2018-12-08T06:45:44.152Z,34.17
2018-12-08T06:49:42.813Z,35.23
2018-12-08T06:52:12.355Z,35.93
2018-12-08T06:54:41.575Z,31.93
2018-12-08T06:57:11.033Z,36.73
2018-12-08T06:59:40.237Z,33.00
2018-12-08T07:02:09.663Z,33.87
2018-12-08T07:04:38.915Z,31.63
2018-12-08T07:07:08.488Z,31.93
2018-12-08T07:09:37.705Z,29.83
2018-12-08T07:12:07.179Z,32.77
2018-12-08T07:14:36.583Z,29.77
2018-12-08T07:17:05.943Z,29.20
2018-12-08T07:19:35.534Z,31.33
2018-12-08T07:22:05.305Z,27.87
2018-12-08T07:24:35.197Z,26.90
2018-12-08T07:27:05.007Z,27.33
2018-12-08T07:29:34.250Z,28.70
2018-12-08T07:32:04.811Z,25.07
2018-12-08T07:34:34.255Z,31.87
2018-12-08T07:37:03.859Z,30.10
2018-12-08T07:39:33.281Z,27.33
2018-12-08T07:42:02.926Z,26.07
2018-12-08T07:44:32.309Z,25.00
2018-12-08T07:47:01.590Z,25.17
2018-12-08T07:49:31.001Z,22.17
2018-12-08T07:52:00.405Z,23.60
2018-12-08T07:54:29.680Z,22.70
2018-12-08T07:56:59.054Z,20.03
2018-12-08T07:59:28.281Z,22.67
2018-12-08T08:01:57.806Z,20.43
2018-12-08T08:04:27.255Z,22.40
2018-12-08T08:06:57.879Z,19.97
2018-12-08T08:09:27.144Z,17.60
2018-12-08T08:11:57.977Z,12.33
2018-12-08T08:14:27.742Z,8.73
2018-12-08T08:16:57.501Z,7.50
2018-12-08T08:19:26.869Z,5.93
2018-12-08T08:21:56.553Z,4.73
2018-12-08T08:24:25.873Z,5.40
2018-12-08T08:26:55.369Z,4.00
2018-12-08T08:29:24.837Z,5.47
2018-12-08T08:31:54.610Z,4.63
2018-12-08T08:34:24.008Z,4.17
2018-12-08T08:36:53.544Z,3.80
2018-12-08T08:39:22.824Z,4.17
2018-12-08T08:41:52.363Z,4.93
2018-12-08T08:44:21.616Z,5.77
2018-12-08T08:46:51.287Z,4.77
2018-12-08T08:49:20.508Z,3.57
2018-12-08T08:51:50.258Z,3.10
2018-12-08T08:54:20.438Z,4.03
2018-12-08T08:56:49.849Z,2.40
2018-12-08T08:59:19.202Z,5.97
2018-12-08T09:01:48.463Z,5.23
2018-12-08T09:04:17.971Z,3.17
2018-12-08T09:06:47.221Z,4.20
2018-12-08T09:09:16.878Z,2.83
2018-12-08T09:11:46.469Z,5.33
2018-12-08T09:14:15.893Z,4.50
2018-12-08T09:16:45.422Z,4.40
2018-12-08T09:19:14.792Z,3.80
2018-12-08T09:21:44.238Z,4.20
2018-12-08T09:24:13.646Z,5.70
2018-12-08T09:26:42.904Z,4.93
2018-12-08T09:29:12.164Z,9.47
2018-12-08T09:31:41.632Z,4.80
2018-12-08T09:34:11.074Z,5.63
2018-12-08T09:36:40.832Z,6.20
2018-12-08T09:39:11.068Z,7.27
2018-12-08T09:41:40.617Z,12.27
2018-12-08T09:44:10.144Z,6.30
2018-12-08T09:46:39.434Z,5.47
2018-12-08T09:49:08.762Z,10.33
2018-12-08T09:51:38.555Z,8.13
2018-12-08T09:54:07.760Z,8.53
2018-12-08T09:56:37.141Z,7.40
2018-12-08T09:59:06.384Z,12.47
2018-12-08T10:01:35.764Z,10.93
2018-12-08T10:04:05.111Z,7.67
2018-12-08T10:06:34.666Z,8.63
2018-12-08T10:09:05.246Z,6.27
2018-12-08T10:11:36.424Z,7.50
2018-12-08T10:14:05.812Z,5.33
2018-12-08T10:16:35.451Z,6.67
2018-12-08T10:19:04.839Z,12.40
2018-12-08T10:21:34.361Z,9.60
2018-12-08T10:24:03.586Z,11.03
2018-12-08T10:26:33.291Z,8.27
2018-12-08T10:29:03.665Z,11.93
2018-12-08T10:31:32.920Z,8.10
2018-12-08T10:34:02.250Z,9.03
2018-12-08T10:36:31.697Z,10.77
2018-12-08T10:39:01.071Z,12.33
2018-12-08T10:41:32.398Z,7.00
2018-12-08T10:44:01.908Z,9.30
2018-12-08T10:46:31.354Z,9.60
2018-12-08T10:49:00.697Z,9.87
2018-12-08T10:51:31.115Z,12.13
2018-12-08T10:54:02.508Z,8.97
2018-12-08T10:56:32.081Z,6.00
2018-12-08T10:59:01.341Z,7.40
2018-12-08T11:01:36.057Z,9.53
2018-12-08T11:04:05.394Z,12.70
2018-12-08T11:06:34.679Z,13.83
2018-12-08T11:09:05.354Z,13.25
2018-12-08T11:11:36.699Z,11.77
2018-12-08T11:14:05.986Z,13.97
2018-12-08T11:16:35.321Z,11.00
2018-12-08T11:19:04.775Z,12.67
2018-12-08T11:21:35.628Z,11.47
2018-12-08T11:24:05.142Z,8.10
2018-12-08T11:26:34.838Z,10.43
2018-12-08T11:29:04.180Z,13.03
2018-12-08T11:31:33.758Z,11.57
2018-12-08T11:34:03.172Z,9.80
2018-12-08T11:36:32.384Z,8.37
2018-12-08T11:39:01.681Z,9.60
2018-12-08T11:41:33.318Z,10.10
2018-12-08T11:44:02.736Z,14.93
2018-12-08T11:46:32.041Z,10.70
2018-12-08T11:49:01.284Z,13.87
2018-12-08T11:51:30.567Z,13.63
2018-12-08T11:53:59.815Z,14.93
2018-12-08T11:56:29.377Z,16.73
2018-12-08T11:58:58.664Z,18.03
2018-12-08T12:01:28.212Z,15.43
2018-12-08T12:03:57.516Z,13.70
2018-12-08T12:06:26.923Z,12.77
2018-12-08T12:08:56.315Z,13.03
2018-12-08T12:11:25.808Z,15.10
2018-12-08T12:13:55.069Z,12.73
2018-12-08T12:16:24.739Z,10.43
2018-12-08T12:18:54.885Z,13.77
2018-12-08T12:21:24.891Z,13.70
2018-12-08T12:23:54.261Z,16.37
2018-12-08T12:26:23.718Z,14.00
2018-12-08T12:28:53.124Z,10.87
2018-12-08T12:31:22.504Z,9.83
2018-12-08T12:33:51.825Z,13.90
2018-12-08T12:36:21.233Z,14.87
2018-12-08T12:38:50.524Z,13.43
2018-12-08T12:41:20.118Z,13.50
2018-12-08T12:43:49.516Z,14.23
2018-12-08T12:46:19.011Z,13.20
2018-12-08T12:48:49.061Z,16.23
2018-12-08T12:51:18.633Z,16.10
2018-12-08T12:53:48.966Z,18.67
2018-12-08T12:56:18.584Z,15.70
2018-12-08T12:58:47.874Z,13.80
2018-12-08T13:01:18.033Z,17.23
2018-12-08T13:03:47.681Z,12.47
2018-12-08T13:06:17.222Z,13.30
2018-12-08T13:08:46.774Z,20.37
2018-12-08T13:11:16.169Z,14.07
2018-12-08T13:13:45.394Z,12.80
2018-12-08T13:16:14.935Z,12.87
2018-12-08T13:18:44.232Z,12.67
2018-12-08T13:21:13.835Z,11.77
2018-12-08T13:23:43.072Z,13.47
2018-12-08T13:26:12.689Z,13.57
2018-12-08T13:28:42.034Z,9.73
2018-12-08T13:31:12.626Z,10.70
2018-12-08T13:33:41.883Z,9.37
2018-12-08T13:36:11.890Z,14.53
2018-12-08T13:38:41.107Z,12.13
2018-12-08T13:41:10.485Z,13.93
2018-12-08T13:43:40.219Z,15.67
2018-12-08T13:46:10.786Z,12.17
2018-12-08T13:51:18.999Z,11.30
2018-12-08T13:53:48.420Z,12.07
2018-12-08T13:56:17.828Z,12.50
2018-12-08T13:58:47.307Z,13.63
2018-12-08T14:01:17.594Z,12.97
2018-12-08T14:03:47.632Z,16.70
2018-12-08T14:06:17.028Z,12.83
2018-12-08T14:08:46.482Z,14.13
2018-12-08T14:11:15.949Z,15.27
2018-12-08T14:13:45.364Z,8.10
2018-12-08T14:16:15.085Z,11.93
2018-12-08T14:18:44.437Z,14.50
2018-12-08T14:21:14.028Z,13.20
2018-12-08T14:23:43.365Z,12.87
2018-12-08T14:26:12.781Z,13.67
2018-12-08T14:28:42.313Z,13.80
2018-12-08T14:31:13.507Z,11.23
2018-12-08T14:33:42.954Z,11.87
2018-12-08T14:36:12.559Z,11.83
2018-12-08T14:38:42.094Z,12.23
2018-12-08T14:41:11.600Z,17.03
2018-12-08T14:43:40.965Z,13.33
2018-12-08T14:46:10.402Z,12.43
2018-12-08T14:48:39.858Z,15.83
2018-12-08T14:51:09.446Z,11.00
2018-12-08T14:53:38.853Z,13.97
2018-12-08T14:56:08.210Z,15.37
2018-12-08T14:58:37.585Z,13.97
2018-12-08T15:01:07.404Z,11.73
2018-12-08T15:03:37.095Z,13.17
2018-12-08T15:06:06.565Z,18.07
2018-12-08T15:08:36.061Z,16.07
2018-12-08T15:11:05.669Z,13.83
2018-12-08T15:13:35.010Z,14.70
2018-12-08T15:16:04.402Z,14.50
2018-12-08T15:18:33.735Z,13.60
2018-12-08T15:21:03.543Z,15.13
2018-12-08T15:23:33.134Z,13.23
2018-12-08T15:26:02.777Z,13.73
2018-12-08T15:28:32.040Z,11.83
2018-12-08T15:31:01.994Z,15.23
2018-12-08T15:33:31.317Z,14.07
2018-12-08T15:36:01.114Z,16.57
2018-12-08T15:38:30.824Z,18.97
2018-12-08T15:41:04.218Z,17.20
2018-12-08T15:43:33.614Z,17.57
2018-12-08T15:46:09.162Z,17.03
2018-12-08T15:48:41.310Z,18.33
2018-12-08T15:51:12.208Z,26.17
2018-12-08T15:53:41.562Z,19.13
2018-12-08T15:56:11.650Z,16.50
2018-12-08T15:58:46.911Z,17.40
2018-12-08T16:01:23.805Z,17.77
2018-12-08T16:03:58.016Z,18.57
2018-12-08T16:06:27.522Z,17.27
2018-12-08T16:08:59.684Z,15.70
2018-12-08T16:11:29.319Z,14.47
2018-12-08T16:13:58.583Z,18.67
2018-12-08T16:16:28.395Z,17.13
2018-12-08T16:18:58.421Z,15.50
2018-12-08T16:21:27.976Z,16.83
2018-12-08T16:24:03.758Z,18.87
2018-12-08T16:26:33.396Z,22.40
2018-12-08T16:29:03.895Z,17.47
2018-12-08T16:31:33.323Z,15.70
2018-12-08T16:34:02.709Z,16.30
2018-12-08T16:36:33.668Z,15.13
2018-12-08T16:39:08.461Z,13.50
2018-12-08T16:41:38.233Z,15.80
2018-12-08T16:44:07.675Z,15.13
2018-12-08T16:46:37.241Z,13.33
2018-12-08T16:49:06.625Z,15.70
2018-12-08T16:51:35.998Z,11.37
2018-12-08T16:54:05.409Z,12.87
2018-12-08T16:56:35.217Z,14.97
2018-12-08T16:59:04.613Z,11.83
2018-12-08T17:01:34.514Z,12.20
2018-12-08T17:04:03.860Z,13.80
2018-12-08T17:06:33.898Z,15.70
2018-12-08T17:09:06.108Z,12.97
2018-12-08T17:11:35.860Z,17.07
2018-12-08T17:14:05.528Z,12.80
2018-12-08T17:16:35.239Z,13.33
2018-12-08T17:19:04.678Z,10.60
2018-12-08T17:21:34.484Z,21.40
2018-12-08T17:24:04.013Z,14.70
2018-12-08T17:26:33.619Z,15.87
2018-12-08T17:29:02.932Z,12.63
2018-12-08T17:31:32.448Z,15.90
2018-12-08T17:34:01.737Z,14.47
2018-12-08T17:36:31.071Z,14.53
2018-12-08T17:39:00.333Z,14.47
2018-12-08T17:41:29.850Z,15.20
2018-12-08T17:44:03.492Z,14.00
2018-12-08T17:46:36.597Z,11.53
2018-12-08T17:49:07.339Z,12.47
2018-12-08T17:51:36.882Z,14.13
2018-12-08T17:54:06.146Z,13.77
2018-12-08T17:56:36.938Z,16.93
2018-12-08T17:59:06.370Z,12.33
2018-12-08T18:01:37.046Z,15.10
2018-12-08T18:04:07.312Z,14.73
2018-12-08T18:06:37.584Z,15.07
2018-12-08T18:09:08.536Z,17.30
2018-12-08T18:11:37.907Z,16.97
2018-12-08T18:14:12.984Z,17.30
2018-12-08T18:16:46.630Z,12.27
2018-12-08T18:19:16.577Z,18.93
2018-12-08T18:21:47.967Z,15.27
2018-12-08T18:26:49.014Z,15.47
2018-12-08T18:29:20.962Z,20.37
2018-12-08T18:31:50.784Z,15.73
2018-12-08T18:36:53.035Z,18.27
2018-12-08T18:39:23.294Z,18.73
2018-12-08T18:41:52.999Z,18.57
2018-12-08T18:46:54.223Z,20.17
2018-12-08T18:51:57.722Z,16.10
2018-12-08T18:54:27.055Z,19.90
2018-12-08T18:57:00.395Z,18.03
2018-12-08T19:03:14.255Z,21.00
2018-12-08T19:05:44.793Z,16.87
2018-12-08T19:08:14.787Z,16.27
2018-12-08T19:10:45.080Z,18.40
2018-12-08T19:13:14.620Z,18.60
2018-12-08T19:15:44.105Z,21.10
2018-12-08T19:18:17.229Z,15.93
2018-12-08T19:20:48.439Z,17.43
2018-12-08T19:23:18.471Z,18.23
2018-12-08T19:25:49.061Z,20.03
2018-12-08T19:28:18.940Z,22.47
2018-12-08T19:30:48.283Z,17.47
2018-12-08T19:35:53.839Z,15.87
2018-12-08T19:38:28.596Z,33.07
2018-12-08T19:44:34.009Z,17.33
2018-12-08T19:47:04.689Z,25.77
2018-12-08T19:49:34.487Z,19.40
2018-12-08T19:52:09.764Z,17.70
2018-12-08T19:54:39.372Z,17.77
2018-12-08T19:57:08.952Z,16.03
2018-12-08T19:59:39.150Z,15.13
2018-12-08T20:02:08.532Z,15.60
2018-12-08T20:04:38.362Z,15.67
2018-12-08T20:07:07.765Z,17.77
2018-12-08T20:09:37.305Z,17.70
2018-12-08T20:12:06.744Z,14.83
2018-12-08T20:14:36.363Z,17.37
2018-12-08T20:17:05.820Z,17.30
2018-12-08T20:19:35.222Z,16.83
2018-12-08T20:22:04.766Z,18.57
2018-12-08T20:24:34.344Z,16.40
2018-12-08T20:27:03.735Z,15.90
2018-12-08T20:29:33.286Z,16.90
2018-12-08T20:32:02.585Z,16.10
2018-12-08T20:34:31.928Z,14.17
2018-12-08T20:37:01.923Z,16.77
2018-12-08T20:39:31.929Z,13.43
2018-12-08T20:42:01.369Z,15.47
2018-12-08T20:44:30.841Z,15.40
2018-12-08T20:49:33.602Z,16.20
2018-12-08T20:52:03.871Z,14.77
2018-12-08T20:54:34.419Z,13.63
2018-12-08T20:57:03.854Z,14.47
2018-12-08T20:59:33.571Z,14.30
2018-12-08T21:02:03.297Z,16.30
2018-12-08T21:04:34.352Z,18.13
2018-12-08T21:07:03.885Z,16.23
2018-12-08T21:09:33.784Z,16.03
2018-12-08T21:12:03.277Z,14.63
2018-12-08T21:14:32.939Z,15.80
2018-12-08T21:17:02.606Z,17.50
2018-12-08T21:19:32.372Z,13.70
2018-12-08T21:22:01.884Z,16.43
2018-12-08T21:24:32.166Z,15.93
2018-12-08T21:27:01.895Z,15.60
2018-12-08T21:29:32.514Z,21.53
2018-12-08T21:32:01.924Z,13.37
2018-12-08T21:34:31.805Z,15.70
2018-12-08T21:37:01.364Z,16.40
2018-12-08T21:39:30.921Z,16.60
2018-12-08T21:42:01.662Z,16.03
2018-12-08T21:44:31.586Z,16.13
2018-12-08T21:47:01.082Z,19.97
2018-12-08T21:49:31.254Z,17.37
2018-12-08T21:52:00.595Z,20.07
2018-12-08T21:54:30.301Z,19.93
2018-12-08T21:56:59.912Z,17.50
2018-12-08T21:59:29.973Z,16.33
2018-12-08T22:02:00.003Z,16.00
2018-12-08T22:04:29.676Z,24.17
2018-12-08T22:06:59.169Z,16.57
2018-12-08T22:09:30.232Z,17.07
2018-12-08T22:11:59.610Z,19.60
2018-12-08T22:14:29.070Z,18.60
2018-12-08T22:16:58.508Z,18.27
2018-12-08T22:19:28.064Z,15.77
2018-12-08T22:21:57.899Z,18.67
2018-12-08T22:24:27.582Z,17.50
2018-12-08T22:26:56.942Z,14.27
2018-12-08T22:29:26.791Z,20.80
2018-12-08T22:31:56.074Z,14.90
2018-12-08T22:34:25.390Z,15.30
2018-12-08T22:36:54.880Z,16.93
2018-12-08T22:40:53.731Z,15.93
2018-12-08T22:43:23.106Z,18.73
2018-12-08T22:45:52.385Z,14.90
2018-12-08T22:48:21.721Z,21.23
2018-12-08T22:50:51.062Z,18.87
2018-12-08T22:53:20.456Z,19.17
2018-12-08T22:55:54.834Z,15.37
2018-12-08T22:58:24.149Z,16.17
2018-12-08T23:00:53.924Z,17.37
2018-12-08T23:03:23.355Z,19.03
2018-12-08T23:05:52.879Z,15.93
2018-12-08T23:08:22.287Z,16.97
2018-12-08T23:10:51.533Z,16.50
2018-12-08T23:13:21.000Z,18.63
2018-12-08T23:15:50.484Z,14.47
2018-12-08T23:18:19.771Z,17.20
2018-12-08T23:20:49.243Z,17.90
2018-12-08T23:23:18.890Z,15.80
2018-12-08T23:25:49.657Z,17.50
2018-12-08T23:28:18.957Z,20.87
2018-12-08T23:30:48.598Z,22.20
2018-12-08T23:33:17.922Z,15.63
2018-12-08T23:35:47.503Z,18.47
2018-12-08T23:38:16.971Z,17.37
2018-12-08T23:40:46.512Z,18.37
2018-12-08T23:43:16.016Z,17.90
2018-12-08T23:45:45.603Z,16.60
2018-12-08T23:48:14.907Z,19.57
2018-12-08T23:50:44.734Z,15.43
2018-12-08T23:53:14.096Z,17.10
2018-12-08T23:55:43.668Z,16.47
2018-12-08T23:58:13.114Z,18.70
